createdAt,value
2023-05-19T00:01:02.138Z,3.58
2023-05-19T00:03:31.699Z,2.65
2023-05-19T00:06:03.638Z,2.42
2023-05-19T00:08:32.800Z,2.78
2023-05-19T00:11:02.942Z,3.83
2023-05-19T00:13:31.976Z,3.38
2023-05-19T00:16:00.901Z,3.70
2023-05-19T00:18:29.849Z,1.73
2023-05-19T00:20:58.402Z,2.90
2023-05-19T00:23:28.213Z,3.30
2023-05-19T00:25:56.796Z,3.05
2023-05-19T00:28:25.405Z,2.83
2023-05-19T00:30:54.130Z,2.88
2023-05-19T00:33:22.667Z,1.92
2023-05-19T00:35:51.215Z,1.92
2023-05-19T00:38:19.680Z,3.00
2023-05-19T00:40:49.991Z,2.15
2023-05-19T00:43:18.549Z,1.35
2023-05-19T00:45:47.011Z,2.97
2023-05-19T00:48:15.462Z,2.08
2023-05-19T00:50:44.287Z,2.67
2023-05-19T00:53:13.607Z,2.50
2023-05-19T00:55:42.228Z,3.38
2023-05-19T00:58:13.689Z,4.20
2023-05-19T01:00:42.740Z,2.20
2023-05-19T01:03:12.979Z,2.47
2023-05-19T01:05:44.774Z,1.77
2023-05-19T01:08:13.427Z,3.17
2023-05-19T01:10:42.564Z,2.33
2023-05-19T01:13:12.803Z,2.35
2023-05-19T01:15:55.704Z,2.78
2023-05-19T01:18:31.737Z,2.58
2023-05-19T01:21:16.978Z,2.15
2023-05-19T01:23:54.225Z,2.00
2023-05-19T01:26:55.974Z,2.75
2023-05-19T01:29:43.802Z,2.92
2023-05-19T01:32:20.576Z,1.92
2023-05-19T01:34:50.698Z,2.92
2023-05-19T01:37:20.520Z,2.13
2023-05-19T01:39:49.515Z,2.00
2023-05-19T01:42:18.974Z,1.90
2023-05-19T01:44:47.959Z,2.33
2023-05-19T01:47:17.884Z,2.85
2023-05-19T01:49:46.346Z,1.85
2023-05-19T01:52:14.827Z,2.90
2023-05-19T01:54:43.342Z,3.15
2023-05-19T01:57:22.546Z,2.53
2023-05-19T01:59:58.653Z,2.15
2023-05-19T02:02:39.543Z,2.60
2023-05-19T02:05:14.482Z,2.08
2023-05-19T02:07:46.675Z,2.33
2023-05-19T02:10:23.782Z,2.80
2023-05-19T02:12:55.267Z,2.72
2023-05-19T02:15:30.152Z,1.83
2023-05-19T02:18:04.568Z,1.77
2023-05-19T02:20:33.488Z,1.80
2023-05-19T02:23:02.246Z,1.67
2023-05-19T02:25:30.883Z,2.83
2023-05-19T02:28:00.057Z,2.17
2023-05-19T02:30:32.816Z,2.00
2023-05-19T02:33:06.298Z,2.65
2023-05-19T02:35:34.892Z,2.10
2023-05-19T02:38:03.353Z,2.38
2023-05-19T02:40:31.967Z,2.10
2023-05-19T02:43:00.525Z,2.55
2023-05-19T02:45:29.986Z,2.85
2023-05-19T02:48:00.453Z,2.40
2023-05-19T02:50:30.534Z,2.15
2023-05-19T02:52:59.162Z,4.88
2023-05-19T02:55:27.614Z,2.25
2023-05-19T02:57:56.126Z,2.15
2023-05-19T03:00:24.680Z,2.20
2023-05-19T03:02:54.184Z,2.03
2023-05-19T03:05:22.710Z,1.98
2023-05-19T03:07:52.509Z,1.75
2023-05-19T03:10:20.970Z,2.28
2023-05-19T03:12:49.414Z,2.15
2023-05-19T03:15:18.743Z,1.63
2023-05-19T03:17:47.284Z,2.00
2023-05-19T03:20:16.800Z,3.15
2023-05-19T03:22:45.601Z,3.67
2023-05-19T03:25:15.426Z,3.08
2023-05-19T03:27:44.010Z,1.73
2023-05-19T03:30:13.755Z,1.58
2023-05-19T03:32:55.769Z,2.78
2023-05-19T03:35:24.267Z,2.00
2023-05-19T03:37:52.893Z,2.42
2023-05-19T03:40:23.884Z,2.90
2023-05-19T03:42:55.294Z,2.47
2023-05-19T03:45:23.772Z,1.70
2023-05-19T03:47:53.805Z,2.58
2023-05-19T03:50:42.590Z,2.65
2023-05-19T03:53:17.477Z,2.85
2023-05-19T03:55:48.513Z,2.38
2023-05-19T03:58:17.504Z,1.73
2023-05-19T04:00:45.992Z,1.70
2023-05-19T04:03:14.523Z,1.88
2023-05-19T04:05:43.145Z,2.60
2023-05-19T04:08:11.672Z,2.75
2023-05-19T04:10:40.114Z,2.30
2023-05-19T04:13:11.358Z,1.27
2023-05-19T04:15:40.988Z,1.58
2023-05-19T04:18:10.826Z,1.90
2023-05-19T04:20:42.207Z,1.55
2023-05-19T04:23:10.894Z,2.72
2023-05-19T04:25:40.799Z,2.10
2023-05-19T04:28:10.755Z,1.77
2023-05-19T04:30:39.352Z,2.17
2023-05-19T04:33:07.998Z,2.45
2023-05-19T04:35:38.127Z,1.98
2023-05-19T04:38:07.584Z,1.80
2023-05-19T04:40:37.183Z,2.08
2023-05-19T04:43:07.327Z,2.72
2023-05-19T04:45:37.566Z,2.08
2023-05-19T04:48:07.850Z,1.50
2023-05-19T04:50:38.581Z,1.88
2023-05-19T04:53:07.264Z,2.88
2023-05-19T04:55:35.905Z,2.10
2023-05-19T04:58:04.581Z,2.38
2023-05-19T05:00:35.745Z,2.88
2023-05-19T05:03:08.935Z,3.40
2023-05-19T05:05:37.891Z,3.45
2023-05-19T05:08:07.220Z,3.95
2023-05-19T05:10:40.126Z,6.20
2023-05-19T05:13:10.597Z,5.95
2023-05-19T05:15:40.924Z,6.35
2023-05-19T05:18:11.941Z,3.40
2023-05-19T05:20:41.242Z,4.25
2023-05-19T05:23:10.558Z,6.75
2023-05-19T05:25:39.928Z,5.28
2023-05-19T05:28:08.655Z,9.25
2023-05-19T05:30:38.849Z,9.57
2023-05-19T05:33:09.329Z,7.68
2023-05-19T05:35:41.510Z,6.75
2023-05-19T05:38:12.378Z,5.32
2023-05-19T05:40:41.759Z,6.22
2023-05-19T05:43:10.902Z,10.23
2023-05-19T05:45:46.123Z,6.05
2023-05-19T05:48:15.406Z,7.25
2023-05-19T05:50:46.700Z,4.97
2023-05-19T05:53:20.842Z,5.05
2023-05-19T05:58:24.331Z,3.55
2023-05-19T06:00:55.224Z,4.50
2023-05-19T06:03:26.113Z,5.38
2023-05-19T06:05:56.860Z,4.55
2023-05-19T06:08:25.385Z,3.70
2023-05-19T06:10:53.860Z,5.18
2023-05-19T06:13:24.153Z,5.45
2023-05-19T06:15:53.479Z,4.22
2023-05-19T06:18:26.807Z,5.55
2023-05-19T06:20:56.703Z,5.22
2023-05-19T06:23:26.688Z,4.80
2023-05-19T06:25:55.166Z,3.80
2023-05-19T06:28:23.723Z,4.70
2023-05-19T06:30:53.617Z,3.83
2023-05-19T06:33:29.387Z,6.10
2023-05-19T06:36:00.963Z,3.38
2023-05-19T06:38:30.005Z,3.40
2023-05-19T06:40:58.570Z,3.70
2023-05-19T06:43:27.130Z,3.70
2023-05-19T06:45:57.612Z,4.80
2023-05-19T06:48:27.569Z,5.40
2023-05-19T06:50:56.401Z,5.15
2023-05-19T06:53:27.218Z,3.78
2023-05-19T06:55:59.714Z,4.10
2023-05-19T06:58:30.401Z,7.05
2023-05-19T07:01:00.527Z,6.53
2023-05-19T07:03:34.462Z,3.70
2023-05-19T07:06:04.057Z,4.38
2023-05-19T07:08:37.095Z,6.13
2023-05-19T07:11:08.166Z,7.78
2023-05-19T07:13:36.771Z,4.70
2023-05-19T07:16:06.514Z,5.82
2023-05-19T07:18:35.412Z,5.95
2023-05-19T07:21:03.927Z,4.55
2023-05-19T07:23:32.978Z,5.55
2023-05-19T07:26:02.808Z,5.82
2023-05-19T07:28:31.249Z,4.22
2023-05-19T07:30:59.652Z,4.93
2023-05-19T07:33:28.154Z,5.03
2023-05-19T07:35:56.684Z,6.78
2023-05-19T07:38:25.219Z,5.07
2023-05-19T07:40:53.691Z,6.00
2023-05-19T07:43:23.470Z,8.13
2023-05-19T07:45:53.488Z,5.20
2023-05-19T07:48:22.510Z,6.43
2023-05-19T07:50:52.145Z,5.53
2023-05-19T07:53:20.815Z,4.63
2023-05-19T07:55:49.785Z,5.07
2023-05-19T07:58:18.993Z,6.18
2023-05-19T08:00:48.879Z,4.90
2023-05-19T08:03:18.374Z,3.83
2023-05-19T08:05:47.001Z,5.43
2023-05-19T08:08:16.848Z,6.55
2023-05-19T08:10:45.676Z,7.43
2023-05-19T08:13:14.221Z,14.98
2023-05-19T08:15:42.815Z,10.57
2023-05-19T08:18:12.770Z,8.35
2023-05-19T08:20:41.748Z,13.98
2023-05-19T08:23:10.220Z,12.00
2023-05-19T08:25:38.717Z,10.98
2023-05-19T08:28:07.261Z,14.15
2023-05-19T08:30:35.701Z,11.30
2023-05-19T08:33:04.232Z,10.50
2023-05-19T08:35:34.087Z,12.73
2023-05-19T08:38:02.594Z,11.75
2023-05-19T08:40:31.923Z,12.00
2023-05-19T08:43:00.587Z,10.07
2023-05-19T08:45:29.987Z,10.45
2023-05-19T08:47:59.080Z,9.98
2023-05-19T08:50:32.151Z,12.23
2023-05-19T08:53:05.788Z,11.40
2023-05-19T08:55:37.772Z,11.63
2023-05-19T08:58:06.596Z,9.27
2023-05-19T09:00:35.491Z,11.68
2023-05-19T09:03:17.638Z,15.48
2023-05-19T09:05:52.157Z,8.73
2023-05-19T09:08:22.594Z,9.90
2023-05-19T09:10:51.213Z,11.20
2023-05-19T09:13:19.715Z,9.63
2023-05-19T09:15:49.366Z,8.15
2023-05-19T09:18:18.169Z,11.23
2023-05-19T09:20:47.300Z,12.45
2023-05-19T09:23:16.953Z,9.88
2023-05-19T09:25:50.436Z,8.23
2023-05-19T09:28:25.036Z,9.05
2023-05-19T09:31:00.418Z,11.07
2023-05-19T09:33:29.598Z,9.50
2023-05-19T09:35:58.439Z,8.57
2023-05-19T09:38:27.406Z,16.38
2023-05-19T09:41:01.502Z,9.55
2023-05-19T09:43:30.125Z,8.02
2023-05-19T09:46:01.252Z,10.93
2023-05-19T09:48:30.422Z,9.55
2023-05-19T09:50:59.216Z,7.85
2023-05-19T09:53:28.077Z,11.93
2023-05-19T09:55:58.943Z,12.55
2023-05-19T09:58:27.912Z,11.38
2023-05-19T10:00:57.011Z,10.10
2023-05-19T10:03:26.735Z,8.95
2023-05-19T10:05:56.486Z,8.45
2023-05-19T10:08:27.253Z,7.53
2023-05-19T10:10:56.854Z,13.77
2023-05-19T10:13:26.952Z,9.75
2023-05-19T10:15:59.229Z,8.95
2023-05-19T10:18:29.396Z,11.25
2023-05-19T10:20:58.821Z,9.63
2023-05-19T10:23:27.629Z,5.38
2023-05-19T10:25:59.006Z,10.57
2023-05-19T10:28:36.071Z,8.52
2023-05-19T10:31:09.659Z,7.15
2023-05-19T10:33:58.632Z,7.82
2023-05-19T10:36:40.305Z,12.65
2023-05-19T10:39:16.551Z,6.65
2023-05-19T10:41:52.169Z,8.18
2023-05-19T10:44:35.472Z,8.15
2023-05-19T10:47:07.648Z,6.65
2023-05-19T10:49:37.359Z,9.23
2023-05-19T10:52:21.437Z,6.30
2023-05-19T10:54:50.075Z,6.72
2023-05-19T10:57:19.233Z,7.10
2023-05-19T10:59:49.943Z,7.57
2023-05-19T11:02:39.659Z,9.07
2023-05-19T11:05:09.281Z,6.45
2023-05-19T11:07:37.984Z,7.38
2023-05-19T11:10:08.039Z,9.50
2023-05-19T11:12:44.338Z,8.65
2023-05-19T11:15:16.553Z,6.45
2023-05-19T11:17:49.288Z,7.85
2023-05-19T11:20:25.600Z,6.97
2023-05-19T11:23:08.123Z,8.90
2023-05-19T11:25:47.861Z,7.15
2023-05-19T11:28:20.367Z,7.00
2023-05-19T11:30:51.790Z,9.20
2023-05-19T11:33:21.492Z,6.32
2023-05-19T11:35:52.148Z,4.90
2023-05-19T11:38:21.152Z,7.78
2023-05-19T11:40:53.460Z,6.72
2023-05-19T11:43:23.896Z,5.13
2023-05-19T11:45:54.717Z,6.03
2023-05-19T11:48:23.679Z,5.45
2023-05-19T11:50:52.453Z,6.60
2023-05-19T11:53:21.202Z,5.43
2023-05-19T11:55:50.282Z,6.38
2023-05-19T11:58:19.048Z,5.38
2023-05-19T12:00:48.036Z,5.25
2023-05-19T12:03:22.933Z,5.78
2023-05-19T12:05:51.793Z,4.68
2023-05-19T12:08:21.569Z,5.07
2023-05-19T12:10:51.464Z,4.57
2023-05-19T12:13:20.962Z,8.27
2023-05-19T12:15:51.812Z,6.15
2023-05-19T12:18:21.800Z,4.78
2023-05-19T12:20:50.649Z,5.25
2023-05-19T12:23:19.385Z,6.88
2023-05-19T12:25:48.490Z,4.57
2023-05-19T12:28:17.086Z,6.47
2023-05-19T12:30:48.883Z,4.70
2023-05-19T12:33:17.900Z,5.32
2023-05-19T12:35:49.939Z,6.00
2023-05-19T12:38:20.818Z,6.03
2023-05-19T12:40:51.040Z,5.57
2023-05-19T12:43:22.995Z,5.47
2023-05-19T12:45:52.270Z,6.78
2023-05-19T12:48:23.675Z,4.55
2023-05-19T12:50:55.492Z,6.10
2023-05-19T12:53:23.972Z,6.45
2023-05-19T12:55:53.656Z,6.70
2023-05-19T12:58:23.142Z,5.13
2023-05-19T13:00:52.763Z,5.28
2023-05-19T13:03:22.156Z,3.88
2023-05-19T13:05:51.825Z,5.60
2023-05-19T13:08:23.923Z,6.28
2023-05-19T13:10:52.627Z,5.13
2023-05-19T13:13:21.969Z,5.63
2023-05-19T13:15:51.024Z,5.80
2023-05-19T13:18:19.729Z,5.68
2023-05-19T13:20:50.228Z,5.43
2023-05-19T13:23:19.284Z,7.68
2023-05-19T13:25:50.638Z,5.47
2023-05-19T13:28:19.192Z,5.32
2023-05-19T13:30:49.521Z,4.75
2023-05-19T13:33:18.111Z,5.50
2023-05-19T13:35:46.631Z,5.15
2023-05-19T13:38:15.064Z,5.07
2023-05-19T13:40:43.462Z,4.88
2023-05-19T13:43:13.248Z,6.00
2023-05-19T13:45:42.668Z,3.33
2023-05-19T13:48:11.841Z,5.22
2023-05-19T13:50:40.375Z,5.80
2023-05-19T13:53:09.383Z,4.97
2023-05-19T13:55:38.300Z,7.32
2023-05-19T13:58:06.952Z,5.78
2023-05-19T14:00:37.084Z,6.32
2023-05-19T14:03:05.833Z,6.47
2023-05-19T14:05:34.461Z,8.30
2023-05-19T14:08:03.674Z,5.15
2023-05-19T14:10:32.244Z,8.85
2023-05-19T14:15:34.561Z,4.85
2023-05-19T14:18:05.048Z,4.38
2023-05-19T14:20:34.923Z,7.35
2023-05-19T14:23:03.588Z,3.83
2023-05-19T14:25:32.126Z,3.67
2023-05-19T14:28:00.884Z,5.55
2023-05-19T14:30:29.448Z,6.15
2023-05-19T14:32:58.002Z,7.65
2023-05-19T14:35:28.453Z,4.65
2023-05-19T14:37:56.933Z,4.63
2023-05-19T14:40:25.517Z,4.95
2023-05-19T14:42:53.995Z,4.40
2023-05-19T14:45:22.441Z,9.13
2023-05-19T14:47:51.029Z,6.45
2023-05-19T14:50:19.785Z,6.55
2023-05-19T14:52:49.665Z,5.28
2023-05-19T14:55:18.253Z,5.43
2023-05-19T14:57:46.767Z,5.80
2023-05-19T15:00:15.658Z,5.93
2023-05-19T15:02:44.037Z,5.82
2023-05-19T15:05:12.629Z,5.75
2023-05-19T15:07:41.055Z,4.18
2023-05-19T15:10:11.414Z,5.28
2023-05-19T15:12:39.818Z,5.32
2023-05-19T15:15:09.410Z,3.85
2023-05-19T15:17:37.906Z,4.22
2023-05-19T15:20:07.668Z,3.88
2023-05-19T15:22:36.347Z,8.38
2023-05-19T15:25:05.846Z,5.25
2023-05-19T15:27:37.204Z,4.40
2023-05-19T15:30:06.848Z,7.50
2023-05-19T15:32:35.406Z,10.75
2023-05-19T15:35:03.913Z,6.30
2023-05-19T15:37:32.367Z,9.57
2023-05-19T15:40:00.844Z,6.78
2023-05-19T15:42:29.288Z,8.18
2023-05-19T15:44:59.088Z,7.10
2023-05-19T15:47:27.589Z,5.68
2023-05-19T15:49:56.032Z,4.68
2023-05-19T15:52:24.491Z,4.43
2023-05-19T15:54:55.079Z,3.90
2023-05-19T15:57:23.600Z,5.72
2023-05-19T15:59:52.112Z,4.03
2023-05-19T16:02:22.401Z,4.43
2023-05-19T16:04:50.888Z,3.55
2023-05-19T16:07:19.404Z,4.90
2023-05-19T16:09:47.851Z,5.63
2023-05-19T16:12:16.328Z,4.32
2023-05-19T16:14:44.758Z,3.63
2023-05-19T16:17:13.848Z,4.53
2023-05-19T16:19:43.674Z,5.43
2023-05-19T16:22:12.218Z,4.55
2023-05-19T16:24:40.667Z,7.63
2023-05-19T16:27:09.138Z,4.20
2023-05-19T16:29:37.585Z,3.42
2023-05-19T16:32:06.614Z,3.03
2023-05-19T16:34:35.116Z,3.35
2023-05-19T16:37:05.374Z,3.50
2023-05-19T16:39:33.931Z,5.05
2023-05-19T16:42:02.455Z,3.10
2023-05-19T16:44:30.926Z,4.55
2023-05-19T16:46:59.366Z,4.97
2023-05-19T16:49:27.801Z,3.53
2023-05-19T16:51:56.649Z,3.17
2023-05-19T16:54:26.467Z,5.75
2023-05-19T16:56:54.891Z,4.07
2023-05-19T16:59:23.352Z,4.38
2023-05-19T17:01:51.949Z,4.63
2023-05-19T17:04:20.417Z,4.28
2023-05-19T17:06:48.918Z,3.20
2023-05-19T17:09:17.523Z,4.80
2023-05-19T17:11:47.325Z,3.20
2023-05-19T17:14:16.307Z,2.65
2023-05-19T17:16:44.783Z,3.30
2023-05-19T17:19:13.613Z,2.92
2023-05-19T17:21:42.150Z,3.58
2023-05-19T17:24:11.014Z,4.25
2023-05-19T17:26:39.589Z,4.05
2023-05-19T17:29:09.364Z,4.38
2023-05-19T17:31:37.803Z,2.90
2023-05-19T17:34:06.267Z,3.25
2023-05-19T17:36:34.850Z,3.22
2023-05-19T17:39:03.659Z,4.70
2023-05-19T17:41:32.729Z,4.50
2023-05-19T17:44:01.839Z,4.43
2023-05-19T17:46:34.602Z,4.95
2023-05-19T17:49:03.454Z,4.63
2023-05-19T17:51:32.933Z,3.08
2023-05-19T17:54:01.841Z,3.72
2023-05-19T17:56:33.997Z,3.05
2023-05-19T17:59:03.126Z,2.75
2023-05-19T18:01:33.751Z,3.15
2023-05-19T18:04:03.664Z,3.03
2023-05-19T18:06:32.772Z,3.78
2023-05-19T18:09:02.195Z,4.25
2023-05-19T18:11:30.640Z,3.97
2023-05-19T18:13:59.071Z,3.67
2023-05-19T18:16:27.813Z,5.15
2023-05-19T18:18:57.702Z,3.30
2023-05-19T18:21:26.870Z,2.95
2023-05-19T18:23:55.369Z,3.83
2023-05-19T18:26:23.850Z,4.45
2023-05-19T18:28:52.283Z,4.47
2023-05-19T18:31:20.780Z,4.13
2023-05-19T18:33:49.654Z,3.20
2023-05-19T18:36:19.585Z,4.32
2023-05-19T18:38:48.166Z,3.63
2023-05-19T18:41:16.713Z,2.95
2023-05-19T18:43:45.255Z,3.60
2023-05-19T18:46:13.963Z,4.25
2023-05-19T18:48:42.568Z,2.83
2023-05-19T18:51:11.212Z,3.83
2023-05-19T18:53:41.301Z,3.13
2023-05-19T18:56:12.294Z,3.17
2023-05-19T18:58:40.882Z,4.38
2023-05-19T19:01:09.593Z,5.10
2023-05-19T19:03:38.306Z,2.90
2023-05-19T19:06:07.031Z,3.03
2023-05-19T19:08:35.624Z,4.65
2023-05-19T19:11:09.206Z,3.35
2023-05-19T19:13:37.866Z,3.92
2023-05-19T19:16:07.455Z,2.45
2023-05-19T19:18:36.740Z,3.70
2023-05-19T19:21:05.889Z,3.13
2023-05-19T19:23:34.816Z,2.78
2023-05-19T19:26:03.255Z,2.95
2023-05-19T19:28:33.105Z,4.55
2023-05-19T19:31:01.619Z,3.08
2023-05-19T19:33:30.130Z,4.22
2023-05-19T19:35:58.909Z,4.25
2023-05-19T19:38:27.603Z,4.38
2023-05-19T19:40:56.127Z,5.68
2023-05-19T19:43:24.609Z,4.07
2023-05-19T19:46:01.224Z,3.15
2023-05-19T19:48:29.873Z,4.65
2023-05-19T19:50:59.004Z,5.25
2023-05-19T19:53:27.775Z,4.07
2023-05-19T19:56:00.233Z,3.50
2023-05-19T19:58:29.793Z,4.47
2023-05-19T20:00:58.698Z,4.35
2023-05-19T20:03:28.710Z,5.80
2023-05-19T20:05:57.803Z,2.85
2023-05-19T20:08:27.080Z,4.22
2023-05-19T20:10:55.792Z,5.57
2023-05-19T20:13:24.356Z,4.30
2023-05-19T20:15:53.041Z,4.55
2023-05-19T20:18:21.638Z,4.32
2023-05-19T20:20:51.655Z,3.95
2023-05-19T20:23:20.194Z,4.18
2023-05-19T20:26:06.725Z,3.47
2023-05-19T20:28:37.203Z,5.35
2023-05-19T20:31:06.259Z,5.10
2023-05-19T20:33:34.893Z,3.38
2023-05-19T20:36:06.268Z,5.03
2023-05-19T20:38:34.904Z,3.67
2023-05-19T20:41:03.831Z,4.90
2023-05-19T20:43:32.941Z,4.78
2023-05-19T20:46:03.648Z,4.90
2023-05-19T20:48:32.257Z,3.70
2023-05-19T20:51:00.766Z,4.05
2023-05-19T20:53:30.628Z,4.47
2023-05-19T20:55:59.206Z,5.03
2023-05-19T20:58:30.094Z,5.25
2023-05-19T21:00:58.681Z,4.88
2023-05-19T21:03:28.465Z,4.40
2023-05-19T21:05:57.625Z,5.57
2023-05-19T21:08:26.468Z,5.65
2023-05-19T21:10:56.489Z,5.10
2023-05-19T21:13:24.977Z,5.22
2023-05-19T21:15:53.493Z,4.78
2023-05-19T21:18:22.012Z,4.65
2023-05-19T21:20:50.662Z,4.75
2023-05-19T21:23:19.200Z,5.10
2023-05-19T21:25:47.634Z,4.88
2023-05-19T21:28:17.423Z,3.80
2023-05-19T21:30:48.648Z,7.20
2023-05-19T21:33:17.124Z,5.85
2023-05-19T21:35:46.089Z,4.13
2023-05-19T21:38:23.484Z,4.60
2023-05-19T21:40:53.149Z,5.07
2023-05-19T21:43:23.692Z,6.28
2023-05-19T21:45:52.159Z,4.78
2023-05-19T21:48:21.451Z,5.43
2023-05-19T21:50:53.632Z,5.95
2023-05-19T21:53:22.121Z,5.43
2023-05-19T21:55:50.815Z,5.40
2023-05-19T21:58:19.271Z,6.10
2023-05-19T22:00:51.296Z,5.40
2023-05-19T22:03:20.117Z,4.80
2023-05-19T22:05:52.345Z,5.05
2023-05-19T22:08:22.248Z,5.05
2023-05-19T22:10:51.320Z,5.03
2023-05-19T22:13:20.095Z,7.07
2023-05-19T22:15:51.185Z,5.55
2023-05-19T22:18:19.711Z,5.68
2023-05-19T22:20:48.182Z,4.85
2023-05-19T22:23:16.734Z,4.85
2023-05-19T22:25:45.198Z,4.45
2023-05-19T22:28:13.640Z,7.38
2023-05-19T22:30:43.763Z,6.22
2023-05-19T22:33:13.709Z,5.45
2023-05-19T22:35:42.906Z,6.72
2023-05-19T22:38:11.690Z,8.20
2023-05-19T22:40:40.218Z,6.05
2023-05-19T22:43:08.730Z,6.03
2023-05-19T22:45:37.487Z,5.93
2023-05-19T22:48:06.740Z,6.53
2023-05-19T22:50:36.642Z,6.38
2023-05-19T22:53:05.113Z,8.07
2023-05-19T22:55:33.810Z,7.22
2023-05-19T22:58:02.403Z,7.97
2023-05-19T23:00:31.086Z,7.05
2023-05-19T23:02:59.853Z,6.45
2023-05-19T23:05:28.354Z,5.80
2023-05-19T23:07:58.274Z,6.60
2023-05-19T23:10:26.678Z,6.57
2023-05-19T23:12:55.256Z,6.38
2023-05-19T23:15:23.873Z,7.93
2023-05-19T23:17:52.363Z,6.90
2023-05-19T23:20:20.850Z,6.22
2023-05-19T23:22:49.348Z,6.57
2023-05-19T23:25:19.261Z,8.13
2023-05-19T23:27:47.673Z,6.65
2023-05-19T23:30:16.155Z,6.18
2023-05-19T23:32:44.622Z,6.05
2023-05-19T23:35:14.270Z,6.57
2023-05-19T23:37:42.959Z,7.80
2023-05-19T23:40:12.041Z,4.68
2023-05-19T23:42:41.852Z,6.57
2023-05-19T23:45:10.705Z,8.23
2023-05-19T23:47:39.330Z,5.47
2023-05-19T23:50:08.276Z,6.78
2023-05-19T23:52:36.819Z,5.70
2023-05-19T23:55:05.922Z,4.43
2023-05-19T23:57:34.372Z,7.82
